sensor_id;sensor_type;location;lat;lon;timestamp;P1;durP1;ratioP1;P2;durP2;ratioP2
29730;SDS011;16639;51.488;0.152;2023-04-08T00:01:16;40.05;;;22.40;;
29730;SDS011;16639;51.488;0.152;2023-04-08T00:03:44;47.53;;;22.88;;
29730;SDS011;16639;51.488;0.152;2023-04-08T00:06:11;41.53;;;22.05;;
29730;SDS011;16639;51.488;0.152;2023-04-08T00:08:39;41.83;;;20.17;;
29730;SDS011;16639;51.488;0.152;2023-04-08T00:11:07;40.95;;;20.27;;
29730;SDS011;16639;51.488;0.152;2023-04-08T00:13:34;40.88;;;20.92;;
29730;SDS011;16639;51.488;0.152;2023-04-08T00:16:02;47.78;;;22.35;;
29730;SDS011;16639;51.488;0.152;2023-04-08T00:18:29;49.65;;;22.33;;
29730;SDS011;16639;51.488;0.152;2023-04-08T00:20:57;51.22;;;23.10;;
29730;SDS011;16639;51.488;0.152;2023-04-08T00:23:24;43.90;;;22.63;;
29730;SDS011;16639;51.488;0.152;2023-04-08T00:25:51;42.03;;;20.38;;
29730;SDS011;16639;51.488;0.152;2023-04-08T00:28:19;53.05;;;23.35;;
29730;SDS011;16639;51.488;0.152;2023-04-08T00:30:46;55.80;;;22.10;;
29730;SDS011;16639;51.488;0.152;2023-04-08T00:33:14;53.08;;;23.63;;
29730;SDS011;16639;51.488;0.152;2023-04-08T00:35:42;41.78;;;20.48;;
29730;SDS011;16639;51.488;0.152;2023-04-08T00:38:09;37.20;;;20.63;;
29730;SDS011;16639;51.488;0.152;2023-04-08T00:40:37;45.67;;;23.40;;
29730;SDS011;16639;51.488;0.152;2023-04-08T00:43:04;53.50;;;21.80;;
29730;SDS011;16639;51.488;0.152;2023-04-08T00:45:32;61.03;;;21.98;;
29730;SDS011;16639;51.488;0.152;2023-04-08T00:48:00;50.40;;;21.60;;
29730;SDS011;16639;51.488;0.152;2023-04-08T00:50:29;51.20;;;22.88;;
29730;SDS011;16639;51.488;0.152;2023-04-08T00:52:56;46.03;;;20.75;;
29730;SDS011;16639;51.488;0.152;2023-04-08T00:55:24;39.97;;;19.60;;
29730;SDS011;16639;51.488;0.152;2023-04-08T00:57:51;37.00;;;19.88;;
29730;SDS011;16639;51.488;0.152;2023-04-08T01:00:19;47.28;;;21.15;;
29730;SDS011;16639;51.488;0.152;2023-04-08T01:08:01;39.97;;;18.25;;
29730;SDS011;16639;51.488;0.152;2023-04-08T01:10:32;33.70;;;16.77;;
29730;SDS011;16639;51.488;0.152;2023-04-08T01:13:04;33.90;;;17.35;;
29730;SDS011;16639;51.488;0.152;2023-04-08T01:15:36;38.38;;;17.05;;
29730;SDS011;16639;51.488;0.152;2023-04-08T01:18:07;29.30;;;15.50;;
29730;SDS011;16639;51.488;0.152;2023-04-08T01:20:39;33.85;;;16.67;;
29730;SDS011;16639;51.488;0.152;2023-04-08T01:25:54;54.05;;;18.85;;
29730;SDS011;16639;51.488;0.152;2023-04-08T01:28:22;35.75;;;16.85;;
29730;SDS011;16639;51.488;0.152;2023-04-08T01:30:52;41.75;;;18.00;;
29730;SDS011;16639;51.488;0.152;2023-04-08T01:33:23;41.15;;;17.58;;
29730;SDS011;16639;51.488;0.152;2023-04-08T01:35:51;37.70;;;16.98;;
29730;SDS011;16639;51.488;0.152;2023-04-08T01:38:20;40.25;;;17.95;;
29730;SDS011;16639;51.488;0.152;2023-04-08T01:40:51;42.15;;;17.02;;
29730;SDS011;16639;51.488;0.152;2023-04-08T01:43:20;39.90;;;16.35;;
29730;SDS011;16639;51.488;0.152;2023-04-08T01:45:48;36.40;;;16.42;;
29730;SDS011;16639;51.488;0.152;2023-04-08T01:48:20;32.78;;;16.85;;
29730;SDS011;16639;51.488;0.152;2023-04-08T01:50:48;42.80;;;18.92;;
29730;SDS011;16639;51.488;0.152;2023-04-08T01:53:17;34.03;;;16.10;;
29730;SDS011;16639;51.488;0.152;2023-04-08T01:55:44;41.22;;;15.48;;
29730;SDS011;16639;51.488;0.152;2023-04-08T01:58:15;28.83;;;15.07;;
29730;SDS011;16639;51.488;0.152;2023-04-08T02:00:46;28.42;;;14.80;;
29730;SDS011;16639;51.488;0.152;2023-04-08T02:03:16;22.17;;;13.27;;
29730;SDS011;16639;51.488;0.152;2023-04-08T02:05:46;26.27;;;13.77;;
29730;SDS011;16639;51.488;0.152;2023-04-08T02:08:13;22.70;;;13.07;;
29730;SDS011;16639;51.488;0.152;2023-04-08T02:10:41;30.92;;;13.20;;
29730;SDS011;16639;51.488;0.152;2023-04-08T02:13:08;26.35;;;13.80;;
29730;SDS011;16639;51.488;0.152;2023-04-08T02:15:37;34.28;;;14.38;;
29730;SDS011;16639;51.488;0.152;2023-04-08T02:18:11;26.85;;;13.32;;
29730;SDS011;16639;51.488;0.152;2023-04-08T02:20:43;22.77;;;10.90;;
29730;SDS011;16639;51.488;0.152;2023-04-08T02:25:42;28.90;;;13.23;;
29730;SDS011;16639;51.488;0.152;2023-04-08T02:28:11;22.85;;;12.05;;
29730;SDS011;16639;51.488;0.152;2023-04-08T02:30:44;25.45;;;12.60;;
29730;SDS011;16639;51.488;0.152;2023-04-08T02:33:17;30.70;;;12.15;;
29730;SDS011;16639;51.488;0.152;2023-04-08T02:35:48;20.27;;;11.80;;
29730;SDS011;16639;51.488;0.152;2023-04-08T02:38:17;31.35;;;13.18;;
29730;SDS011;16639;51.488;0.152;2023-04-08T02:40:44;34.38;;;13.55;;
29730;SDS011;16639;51.488;0.152;2023-04-08T02:43:12;27.58;;;12.70;;
29730;SDS011;16639;51.488;0.152;2023-04-08T02:45:42;26.23;;;13.18;;
29730;SDS011;16639;51.488;0.152;2023-04-08T02:48:11;29.42;;;13.70;;
29730;SDS011;16639;51.488;0.152;2023-04-08T02:50:38;37.03;;;16.88;;
29730;SDS011;16639;51.488;0.152;2023-04-08T02:53:07;26.27;;;13.20;;
29730;SDS011;16639;51.488;0.152;2023-04-08T02:55:35;23.73;;;12.68;;
29730;SDS011;16639;51.488;0.152;2023-04-08T02:58:03;26.08;;;13.27;;
29730;SDS011;16639;51.488;0.152;2023-04-08T03:00:31;31.33;;;13.75;;
29730;SDS011;16639;51.488;0.152;2023-04-08T03:02:58;32.75;;;14.73;;
29730;SDS011;16639;51.488;0.152;2023-04-08T03:05:26;28.17;;;13.52;;
29730;SDS011;16639;51.488;0.152;2023-04-08T03:07:53;26.92;;;13.43;;
29730;SDS011;16639;51.488;0.152;2023-04-08T03:10:21;26.67;;;13.63;;
29730;SDS011;16639;51.488;0.152;2023-04-08T03:12:48;26.45;;;13.55;;
29730;SDS011;16639;51.488;0.152;2023-04-08T03:15:16;34.13;;;15.35;;
29730;SDS011;16639;51.488;0.152;2023-04-08T03:17:43;27.83;;;13.73;;
29730;SDS011;16639;51.488;0.152;2023-04-08T03:20:11;28.80;;;13.93;;
29730;SDS011;16639;51.488;0.152;2023-04-08T03:22:38;38.53;;;15.57;;
29730;SDS011;16639;51.488;0.152;2023-04-08T03:25:05;39.50;;;15.80;;
29730;SDS011;16639;51.488;0.152;2023-04-08T03:27:33;27.83;;;14.68;;
29730;SDS011;16639;51.488;0.152;2023-04-08T03:30:00;34.67;;;13.63;;
29730;SDS011;16639;51.488;0.152;2023-04-08T03:32:28;32.75;;;14.80;;
29730;SDS011;16639;51.488;0.152;2023-04-08T03:34:55;32.83;;;13.45;;
29730;SDS011;16639;51.488;0.152;2023-04-08T03:37:23;26.38;;;13.40;;
29730;SDS011;16639;51.488;0.152;2023-04-08T03:39:50;26.55;;;13.63;;
29730;SDS011;16639;51.488;0.152;2023-04-08T03:42:18;28.85;;;14.60;;
29730;SDS011;16639;51.488;0.152;2023-04-08T03:44:45;27.48;;;13.95;;
29730;SDS011;16639;51.488;0.152;2023-04-08T03:47:12;29.92;;;14.00;;
29730;SDS011;16639;51.488;0.152;2023-04-08T03:49:40;39.58;;;16.52;;
29730;SDS011;16639;51.488;0.152;2023-04-08T03:52:07;50.40;;;19.45;;
29730;SDS011;16639;51.488;0.152;2023-04-08T03:54:35;39.40;;;16.40;;
29730;SDS011;16639;51.488;0.152;2023-04-08T03:57:02;45.97;;;19.08;;
29730;SDS011;16639;51.488;0.152;2023-04-08T03:59:30;39.58;;;17.63;;
29730;SDS011;16639;51.488;0.152;2023-04-08T04:01:59;31.77;;;14.60;;
29730;SDS011;16639;51.488;0.152;2023-04-08T04:04:27;29.63;;;14.35;;
29730;SDS011;16639;51.488;0.152;2023-04-08T04:06:54;40.75;;;18.00;;
29730;SDS011;16639;51.488;0.152;2023-04-08T04:09:22;39.17;;;17.25;;
29730;SDS011;16639;51.488;0.152;2023-04-08T04:11:49;48.55;;;18.20;;
29730;SDS011;16639;51.488;0.152;2023-04-08T04:14:17;32.42;;;14.45;;
29730;SDS011;16639;51.488;0.152;2023-04-08T04:16:44;32.30;;;14.63;;
29730;SDS011;16639;51.488;0.152;2023-04-08T04:19:11;38.40;;;18.42;;
29730;SDS011;16639;51.488;0.152;2023-04-08T04:21:38;35.17;;;15.98;;
29730;SDS011;16639;51.488;0.152;2023-04-08T04:24:06;28.95;;;14.38;;
29730;SDS011;16639;51.488;0.152;2023-04-08T04:26:33;26.10;;;14.05;;
29730;SDS011;16639;51.488;0.152;2023-04-08T04:29:00;35.72;;;14.98;;
29730;SDS011;16639;51.488;0.152;2023-04-08T04:31:28;32.65;;;14.52;;
29730;SDS011;16639;51.488;0.152;2023-04-08T04:33:56;31.02;;;13.90;;
29730;SDS011;16639;51.488;0.152;2023-04-08T04:36:24;29.67;;;13.65;;
29730;SDS011;16639;51.488;0.152;2023-04-08T04:38:51;25.45;;;12.82;;
29730;SDS011;16639;51.488;0.152;2023-04-08T04:41:19;28.13;;;12.35;;
29730;SDS011;16639;51.488;0.152;2023-04-08T04:43:47;26.50;;;13.82;;
29730;SDS011;16639;51.488;0.152;2023-04-08T04:46:14;36.25;;;13.38;;
29730;SDS011;16639;51.488;0.152;2023-04-08T04:48:42;29.63;;;13.52;;
29730;SDS011;16639;51.488;0.152;2023-04-08T04:51:09;31.38;;;14.02;;
29730;SDS011;16639;51.488;0.152;2023-04-08T04:53:37;34.17;;;13.57;;
29730;SDS011;16639;51.488;0.152;2023-04-08T04:56:04;29.42;;;12.63;;
29730;SDS011;16639;51.488;0.152;2023-04-08T04:58:32;32.28;;;13.68;;
29730;SDS011;16639;51.488;0.152;2023-04-08T05:00:59;25.60;;;12.05;;
29730;SDS011;16639;51.488;0.152;2023-04-08T05:03:27;29.75;;;13.63;;
29730;SDS011;16639;51.488;0.152;2023-04-08T05:05:54;27.73;;;13.65;;
29730;SDS011;16639;51.488;0.152;2023-04-08T05:08:21;24.77;;;12.73;;
29730;SDS011;16639;51.488;0.152;2023-04-08T05:10:51;41.72;;;15.02;;
29730;SDS011;16639;51.488;0.152;2023-04-08T05:13:21;36.38;;;14.02;;
29730;SDS011;16639;51.488;0.152;2023-04-08T05:15:48;28.90;;;13.05;;
29730;SDS011;16639;51.488;0.152;2023-04-08T05:18:16;27.55;;;13.65;;
29730;SDS011;16639;51.488;0.152;2023-04-08T05:20:43;29.85;;;13.18;;
29730;SDS011;16639;51.488;0.152;2023-04-08T05:23:11;32.78;;;13.90;;
29730;SDS011;16639;51.488;0.152;2023-04-08T05:25:38;61.67;;;20.30;;
29730;SDS011;16639;51.488;0.152;2023-04-08T05:28:05;36.67;;;16.80;;
29730;SDS011;16639;51.488;0.152;2023-04-08T05:30:33;48.67;;;17.50;;
29730;SDS011;16639;51.488;0.152;2023-04-08T05:33:00;38.17;;;16.30;;
29730;SDS011;16639;51.488;0.152;2023-04-08T05:35:28;29.13;;;14.90;;
29730;SDS011;16639;51.488;0.152;2023-04-08T05:37:55;50.67;;;21.83;;
29730;SDS011;16639;51.488;0.152;2023-04-08T05:40:29;33.17;;;17.42;;
29730;SDS011;16639;51.488;0.152;2023-04-08T05:44:10;45.83;;;20.50;;
29730;SDS011;16639;51.488;0.152;2023-04-08T05:46:57;54.17;;;21.98;;
29730;SDS011;16639;51.488;0.152;2023-04-08T05:49:26;54.58;;;22.85;;
29730;SDS011;16639;51.488;0.152;2023-04-08T05:51:53;43.33;;;19.17;;
29730;SDS011;16639;51.488;0.152;2023-04-08T05:54:20;42.45;;;17.90;;
29730;SDS011;16639;51.488;0.152;2023-04-08T05:56:48;47.55;;;19.45;;
29730;SDS011;16639;51.488;0.152;2023-04-08T05:59:15;45.40;;;18.58;;
29730;SDS011;16639;51.488;0.152;2023-04-08T06:01:42;36.92;;;18.58;;
29730;SDS011;16639;51.488;0.152;2023-04-08T06:04:10;42.38;;;18.88;;
29730;SDS011;16639;51.488;0.152;2023-04-08T06:06:38;32.65;;;16.48;;
29730;SDS011;16639;51.488;0.152;2023-04-08T06:09:08;43.65;;;16.92;;
29730;SDS011;16639;51.488;0.152;2023-04-08T06:11:38;34.72;;;16.92;;
29730;SDS011;16639;51.488;0.152;2023-04-08T06:14:05;42.78;;;17.67;;
29730;SDS011;16639;51.488;0.152;2023-04-08T06:16:33;40.47;;;20.80;;
29730;SDS011;16639;51.488;0.152;2023-04-08T06:19:00;35.53;;;19.77;;
29730;SDS011;16639;51.488;0.152;2023-04-08T06:21:27;43.50;;;20.42;;
29730;SDS011;16639;51.488;0.152;2023-04-08T06:23:55;43.97;;;19.05;;
29730;SDS011;16639;51.488;0.152;2023-04-08T06:26:22;35.92;;;18.38;;
29730;SDS011;16639;51.488;0.152;2023-04-08T06:28:50;38.33;;;20.23;;
29730;SDS011;16639;51.488;0.152;2023-04-08T06:31:18;50.17;;;20.10;;
29730;SDS011;16639;51.488;0.152;2023-04-08T06:33:45;39.47;;;19.88;;
29730;SDS011;16639;51.488;0.152;2023-04-08T06:36:13;59.10;;;22.45;;
29730;SDS011;16639;51.488;0.152;2023-04-08T06:38:47;40.33;;;20.23;;
29730;SDS011;16639;51.488;0.152;2023-04-08T06:41:14;41.03;;;21.45;;
29730;SDS011;16639;51.488;0.152;2023-04-08T06:43:42;41.40;;;22.63;;
29730;SDS011;16639;51.488;0.152;2023-04-08T06:46:09;40.58;;;22.13;;
29730;SDS011;16639;51.488;0.152;2023-04-08T06:48:37;38.13;;;21.17;;
29730;SDS011;16639;51.488;0.152;2023-04-08T06:51:04;42.33;;;22.17;;
29730;SDS011;16639;51.488;0.152;2023-04-08T06:53:33;41.63;;;19.63;;
29730;SDS011;16639;51.488;0.152;2023-04-08T06:56:01;47.65;;;21.92;;
29730;SDS011;16639;51.488;0.152;2023-04-08T06:58:28;38.05;;;19.92;;
29730;SDS011;16639;51.488;0.152;2023-04-08T07:00:56;45.60;;;22.17;;
29730;SDS011;16639;51.488;0.152;2023-04-08T07:03:24;42.80;;;21.83;;
29730;SDS011;16639;51.488;0.152;2023-04-08T07:05:52;43.95;;;21.50;;
29730;SDS011;16639;51.488;0.152;2023-04-08T07:08:20;42.25;;;21.38;;
29730;SDS011;16639;51.488;0.152;2023-04-08T07:10:47;41.80;;;21.13;;
29730;SDS011;16639;51.488;0.152;2023-04-08T07:13:15;46.70;;;22.08;;
29730;SDS011;16639;51.488;0.152;2023-04-08T07:15:43;47.63;;;24.40;;
29730;SDS011;16639;51.488;0.152;2023-04-08T07:18:10;45.88;;;22.98;;
29730;SDS011;16639;51.488;0.152;2023-04-08T07:20:39;39.05;;;21.40;;
29730;SDS011;16639;51.488;0.152;2023-04-08T07:23:07;43.35;;;23.83;;
29730;SDS011;16639;51.488;0.152;2023-04-08T07:25:35;46.13;;;20.95;;
29730;SDS011;16639;51.488;0.152;2023-04-08T07:28:02;48.53;;;22.70;;
29730;SDS011;16639;51.488;0.152;2023-04-08T07:30:29;48.45;;;24.38;;
29730;SDS011;16639;51.488;0.152;2023-04-08T07:32:57;51.95;;;22.77;;
29730;SDS011;16639;51.488;0.152;2023-04-08T07:35:27;50.53;;;24.42;;
29730;SDS011;16639;51.488;0.152;2023-04-08T07:37:55;53.50;;;23.98;;
29730;SDS011;16639;51.488;0.152;2023-04-08T07:40:23;48.38;;;23.77;;
29730;SDS011;16639;51.488;0.152;2023-04-08T07:42:51;49.72;;;22.60;;
29730;SDS011;16639;51.488;0.152;2023-04-08T07:45:18;48.22;;;21.52;;
29730;SDS011;16639;51.488;0.152;2023-04-08T07:47:46;38.95;;;21.48;;
29730;SDS011;16639;51.488;0.152;2023-04-08T07:50:13;43.72;;;20.45;;
29730;SDS011;16639;51.488;0.152;2023-04-08T07:52:41;39.65;;;19.05;;
29730;SDS011;16639;51.488;0.152;2023-04-08T07:55:08;44.38;;;20.73;;
29730;SDS011;16639;51.488;0.152;2023-04-08T07:57:36;51.63;;;21.58;;
29730;SDS011;16639;51.488;0.152;2023-04-08T08:00:04;42.58;;;20.08;;
29730;SDS011;16639;51.488;0.152;2023-04-08T08:02:32;36.72;;;19.05;;
29730;SDS011;16639;51.488;0.152;2023-04-08T08:05:00;38.25;;;18.52;;
29730;SDS011;16639;51.488;0.152;2023-04-08T08:07:29;59.42;;;24.58;;
29730;SDS011;16639;51.488;0.152;2023-04-08T08:09:56;40.03;;;18.70;;
29730;SDS011;16639;51.488;0.152;2023-04-08T08:12:24;39.20;;;18.95;;
29730;SDS011;16639;51.488;0.152;2023-04-08T08:14:51;39.47;;;19.95;;
29730;SDS011;16639;51.488;0.152;2023-04-08T08:17:20;38.70;;;21.15;;
29730;SDS011;16639;51.488;0.152;2023-04-08T08:19:48;38.80;;;18.55;;
29730;SDS011;16639;51.488;0.152;2023-04-08T08:22:15;38.97;;;19.60;;
29730;SDS011;16639;51.488;0.152;2023-04-08T08:24:43;36.83;;;18.00;;
29730;SDS011;16639;51.488;0.152;2023-04-08T08:27:10;32.80;;;16.98;;
29730;SDS011;16639;51.488;0.152;2023-04-08T08:29:37;32.10;;;15.68;;
29730;SDS011;16639;51.488;0.152;2023-04-08T08:32:05;28.77;;;15.88;;
29730;SDS011;16639;51.488;0.152;2023-04-08T08:34:32;37.38;;;16.05;;
29730;SDS011;16639;51.488;0.152;2023-04-08T08:37:00;33.42;;;17.75;;
29730;SDS011;16639;51.488;0.152;2023-04-08T08:39:27;30.83;;;16.05;;
29730;SDS011;16639;51.488;0.152;2023-04-08T08:41:54;24.85;;;14.07;;
29730;SDS011;16639;51.488;0.152;2023-04-08T08:44:22;24.70;;;14.18;;
29730;SDS011;16639;51.488;0.152;2023-04-08T08:46:49;23.38;;;13.23;;
29730;SDS011;16639;51.488;0.152;2023-04-08T08:49:17;31.88;;;13.40;;
29730;SDS011;16639;51.488;0.152;2023-04-08T08:51:45;27.25;;;12.40;;
29730;SDS011;16639;51.488;0.152;2023-04-08T08:54:14;21.80;;;11.10;;
29730;SDS011;16639;51.488;0.152;2023-04-08T08:56:42;22.23;;;11.23;;
29730;SDS011;16639;51.488;0.152;2023-04-08T08:59:09;24.73;;;12.50;;
29730;SDS011;16639;51.488;0.152;2023-04-08T09:01:37;28.02;;;12.25;;
29730;SDS011;16639;51.488;0.152;2023-04-08T09:04:11;28.83;;;13.80;;
29730;SDS011;16639;51.488;0.152;2023-04-08T09:06:46;20.60;;;12.85;;
29730;SDS011;16639;51.488;0.152;2023-04-08T09:09:16;25.10;;;12.82;;
29730;SDS011;16639;51.488;0.152;2023-04-08T09:11:45;26.92;;;13.80;;
29730;SDS011;16639;51.488;0.152;2023-04-08T09:14:17;24.73;;;12.40;;
29730;SDS011;16639;51.488;0.152;2023-04-08T09:16:44;27.40;;;13.60;;
29730;SDS011;16639;51.488;0.152;2023-04-08T09:19:12;29.70;;;14.18;;
29730;SDS011;16639;51.488;0.152;2023-04-08T09:21:39;30.08;;;14.63;;
29730;SDS011;16639;51.488;0.152;2023-04-08T09:24:07;32.25;;;14.30;;
29730;SDS011;16639;51.488;0.152;2023-04-08T09:26:35;26.45;;;13.75;;
29730;SDS011;16639;51.488;0.152;2023-04-08T09:29:04;22.95;;;11.63;;
29730;SDS011;16639;51.488;0.152;2023-04-08T09:31:55;23.88;;;12.52;;
29730;SDS011;16639;51.488;0.152;2023-04-08T09:34:27;18.92;;;9.57;;
29730;SDS011;16639;51.488;0.152;2023-04-08T09:36:56;25.10;;;11.18;;
29730;SDS011;16639;51.488;0.152;2023-04-08T09:39:23;19.05;;;9.88;;
29730;SDS011;16639;51.488;0.152;2023-04-08T09:41:51;24.42;;;12.68;;
29730;SDS011;16639;51.488;0.152;2023-04-08T09:44:22;19.83;;;11.63;;
29730;SDS011;16639;51.488;0.152;2023-04-08T09:46:58;17.42;;;9.55;;
29730;SDS011;16639;51.488;0.152;2023-04-08T09:49:33;14.88;;;9.20;;
29730;SDS011;16639;51.488;0.152;2023-04-08T09:55:12;13.40;;;8.55;;
29730;SDS011;16639;51.488;0.152;2023-04-08T09:57:43;21.50;;;9.10;;
29730;SDS011;16639;51.488;0.152;2023-04-08T10:00:18;22.73;;;8.43;;
29730;SDS011;16639;51.488;0.152;2023-04-08T10:02:54;15.93;;;8.77;;
29730;SDS011;16639;51.488;0.152;2023-04-08T10:05:23;22.05;;;10.50;;
29730;SDS011;16639;51.488;0.152;2023-04-08T10:07:51;15.23;;;7.82;;
29730;SDS011;16639;51.488;0.152;2023-04-08T10:10:19;10.48;;;6.32;;
29730;SDS011;16639;51.488;0.152;2023-04-08T10:12:47;15.63;;;6.72;;
29730;SDS011;16639;51.488;0.152;2023-04-08T10:15:27;8.43;;;5.25;;
29730;SDS011;16639;51.488;0.152;2023-04-08T10:23:00;10.32;;;6.13;;
29730;SDS011;16639;51.488;0.152;2023-04-08T10:30:42;11.77;;;5.28;;
29730;SDS011;16639;51.488;0.152;2023-04-08T10:33:16;9.15;;;3.92;;
29730;SDS011;16639;51.488;0.152;2023-04-08T10:36:00;6.20;;;3.88;;
29730;SDS011;16639;51.488;0.152;2023-04-08T10:38:37;10.15;;;5.03;;
29730;SDS011;16639;51.488;0.152;2023-04-08T10:41:05;15.30;;;6.78;;
29730;SDS011;16639;51.488;0.152;2023-04-08T10:43:33;11.65;;;5.85;;
29730;SDS011;16639;51.488;0.152;2023-04-08T10:46:01;9.20;;;4.63;;
29730;SDS011;16639;51.488;0.152;2023-04-08T10:48:30;13.52;;;6.13;;
29730;SDS011;16639;51.488;0.152;2023-04-08T10:50:59;10.00;;;5.45;;
29730;SDS011;16639;51.488;0.152;2023-04-08T10:53:34;13.65;;;5.15;;
29730;SDS011;16639;51.488;0.152;2023-04-08T10:56:04;13.63;;;7.50;;
29730;SDS011;16639;51.488;0.152;2023-04-08T10:58:36;7.45;;;4.72;;
29730;SDS011;16639;51.488;0.152;2023-04-08T11:01:17;8.38;;;4.63;;
29730;SDS011;16639;51.488;0.152;2023-04-08T11:03:45;9.15;;;4.88;;
29730;SDS011;16639;51.488;0.152;2023-04-08T11:06:13;11.85;;;4.30;;
29730;SDS011;16639;51.488;0.152;2023-04-08T11:08:41;6.25;;;4.35;;
29730;SDS011;16639;51.488;0.152;2023-04-08T11:11:10;7.00;;;4.32;;
29730;SDS011;16639;51.488;0.152;2023-04-08T11:13:38;8.07;;;3.80;;
29730;SDS011;16639;51.488;0.152;2023-04-08T11:16:18;6.25;;;4.15;;
29730;SDS011;16639;51.488;0.152;2023-04-08T11:18:46;9.15;;;4.22;;
29730;SDS011;16639;51.488;0.152;2023-04-08T11:21:15;8.52;;;4.15;;
29730;SDS011;16639;51.488;0.152;2023-04-08T11:23:43;7.53;;;4.78;;
29730;SDS011;16639;51.488;0.152;2023-04-08T11:26:15;5.65;;;4.25;;
29730;SDS011;16639;51.488;0.152;2023-04-08T11:28:43;9.32;;;5.32;;
29730;SDS011;16639;51.488;0.152;2023-04-08T11:31:11;6.88;;;3.90;;
29730;SDS011;16639;51.488;0.152;2023-04-08T11:33:46;7.47;;;4.82;;
29730;SDS011;16639;51.488;0.152;2023-04-08T11:36:16;9.10;;;5.07;;
29730;SDS011;16639;51.488;0.152;2023-04-08T11:38:44;9.30;;;4.68;;
29730;SDS011;16639;51.488;0.152;2023-04-08T11:41:13;5.32;;;4.22;;
29730;SDS011;16639;51.488;0.152;2023-04-08T11:43:51;10.18;;;4.80;;
29730;SDS011;16639;51.488;0.152;2023-04-08T11:46:23;7.55;;;5.47;;
29730;SDS011;16639;51.488;0.152;2023-04-08T11:48:58;9.63;;;5.40;;
29730;SDS011;16639;51.488;0.152;2023-04-08T11:51:27;8.80;;;5.20;;
29730;SDS011;16639;51.488;0.152;2023-04-08T11:53:54;7.72;;;5.13;;
29730;SDS011;16639;51.488;0.152;2023-04-08T11:56:23;9.70;;;5.50;;
29730;SDS011;16639;51.488;0.152;2023-04-08T11:58:51;7.95;;;4.60;;
29730;SDS011;16639;51.488;0.152;2023-04-08T12:01:19;6.25;;;4.90;;
29730;SDS011;16639;51.488;0.152;2023-04-08T12:04:00;10.30;;;4.88;;
29730;SDS011;16639;51.488;0.152;2023-04-08T12:06:28;11.05;;;4.65;;
29730;SDS011;16639;51.488;0.152;2023-04-08T12:08:56;8.82;;;5.40;;
29730;SDS011;16639;51.488;0.152;2023-04-08T12:11:24;9.75;;;5.10;;
29730;SDS011;16639;51.488;0.152;2023-04-08T12:13:52;8.90;;;4.97;;
29730;SDS011;16639;51.488;0.152;2023-04-08T12:16:20;9.80;;;5.05;;
29730;SDS011;16639;51.488;0.152;2023-04-08T12:18:47;9.25;;;5.50;;
29730;SDS011;16639;51.488;0.152;2023-04-08T12:21:16;8.73;;;4.82;;
29730;SDS011;16639;51.488;0.152;2023-04-08T12:23:43;9.25;;;4.38;;
29730;SDS011;16639;51.488;0.152;2023-04-08T12:26:10;10.13;;;5.65;;
29730;SDS011;16639;51.488;0.152;2023-04-08T12:28:39;8.82;;;4.75;;
29730;SDS011;16639;51.488;0.152;2023-04-08T12:31:15;6.70;;;4.28;;
29730;SDS011;16639;51.488;0.152;2023-04-08T12:34:14;7.43;;;5.30;;
29730;SDS011;16639;51.488;0.152;2023-04-08T12:36:44;7.03;;;4.68;;
29730;SDS011;16639;51.488;0.152;2023-04-08T12:39:15;6.10;;;4.40;;
29730;SDS011;16639;51.488;0.152;2023-04-08T12:41:42;7.75;;;4.70;;
29730;SDS011;16639;51.488;0.152;2023-04-08T12:44:10;6.90;;;4.30;;
29730;SDS011;16639;51.488;0.152;2023-04-08T12:46:37;10.82;;;5.07;;
29730;SDS011;16639;51.488;0.152;2023-04-08T12:49:05;8.20;;;5.38;;
29730;SDS011;16639;51.488;0.152;2023-04-08T12:51:34;9.68;;;4.82;;
29730;SDS011;16639;51.488;0.152;2023-04-08T12:54:01;9.32;;;4.82;;
29730;SDS011;16639;51.488;0.152;2023-04-08T12:57:12;9.02;;;4.60;;
29730;SDS011;16639;51.488;0.152;2023-04-08T12:59:42;6.40;;;4.93;;
29730;SDS011;16639;51.488;0.152;2023-04-08T13:02:09;10.77;;;5.63;;
29730;SDS011;16639;51.488;0.152;2023-04-08T13:04:37;6.90;;;4.97;;
29730;SDS011;16639;51.488;0.152;2023-04-08T13:07:04;9.15;;;4.45;;
29730;SDS011;16639;51.488;0.152;2023-04-08T13:09:33;8.40;;;4.63;;
29730;SDS011;16639;51.488;0.152;2023-04-08T13:12:00;8.43;;;4.32;;
29730;SDS011;16639;51.488;0.152;2023-04-08T13:14:29;7.68;;;4.70;;
29730;SDS011;16639;51.488;0.152;2023-04-08T13:16:57;8.88;;;5.00;;
29730;SDS011;16639;51.488;0.152;2023-04-08T13:19:24;6.28;;;4.32;;
29730;SDS011;16639;51.488;0.152;2023-04-08T13:21:52;7.97;;;4.35;;
29730;SDS011;16639;51.488;0.152;2023-04-08T13:24:21;7.28;;;4.10;;
29730;SDS011;16639;51.488;0.152;2023-04-08T13:26:49;8.30;;;4.68;;
29730;SDS011;16639;51.488;0.152;2023-04-08T13:29:17;10.95;;;4.25;;
29730;SDS011;16639;51.488;0.152;2023-04-08T13:31:44;6.00;;;4.22;;
29730;SDS011;16639;51.488;0.152;2023-04-08T13:34:12;8.52;;;4.30;;
29730;SDS011;16639;51.488;0.152;2023-04-08T13:36:39;5.13;;;3.58;;
29730;SDS011;16639;51.488;0.152;2023-04-08T13:39:07;6.32;;;4.20;;
29730;SDS011;16639;51.488;0.152;2023-04-08T13:41:34;8.98;;;4.03;;
29730;SDS011;16639;51.488;0.152;2023-04-08T13:44:01;7.18;;;4.20;;
29730;SDS011;16639;51.488;0.152;2023-04-08T13:46:29;10.32;;;4.50;;
29730;SDS011;16639;51.488;0.152;2023-04-08T13:48:57;5.15;;;3.22;;
29730;SDS011;16639;51.488;0.152;2023-04-08T13:51:24;9.95;;;5.75;;
29730;SDS011;16639;51.488;0.152;2023-04-08T13:53:52;18.10;;;6.63;;
29730;SDS011;16639;51.488;0.152;2023-04-08T13:56:20;9.88;;;5.75;;
29730;SDS011;16639;51.488;0.152;2023-04-08T13:58:48;14.20;;;6.35;;
29730;SDS011;16639;51.488;0.152;2023-04-08T14:01:22;13.65;;;6.22;;
29730;SDS011;16639;51.488;0.152;2023-04-08T14:03:50;10.93;;;5.72;;
29730;SDS011;16639;51.488;0.152;2023-04-08T14:06:17;12.82;;;6.35;;
29730;SDS011;16639;51.488;0.152;2023-04-08T14:08:44;11.50;;;5.95;;
29730;SDS011;16639;51.488;0.152;2023-04-08T14:11:12;11.13;;;5.38;;
29730;SDS011;16639;51.488;0.152;2023-04-08T14:13:39;9.20;;;5.00;;
29730;SDS011;16639;51.488;0.152;2023-04-08T14:16:06;10.07;;;6.00;;
29730;SDS011;16639;51.488;0.152;2023-04-08T14:18:34;10.63;;;5.53;;
29730;SDS011;16639;51.488;0.152;2023-04-08T14:21:02;7.55;;;5.55;;
29730;SDS011;16639;51.488;0.152;2023-04-08T14:23:31;10.27;;;5.05;;
29730;SDS011;16639;51.488;0.152;2023-04-08T14:25:58;12.23;;;6.15;;
29730;SDS011;16639;51.488;0.152;2023-04-08T14:28:27;11.75;;;6.72;;
29730;SDS011;16639;51.488;0.152;2023-04-08T14:30:55;8.70;;;5.45;;
29730;SDS011;16639;51.488;0.152;2023-04-08T14:33:23;8.10;;;4.85;;
29730;SDS011;16639;51.488;0.152;2023-04-08T14:35:51;8.23;;;5.82;;
29730;SDS011;16639;51.488;0.152;2023-04-08T14:38:19;22.55;;;10.13;;
29730;SDS011;16639;51.488;0.152;2023-04-08T14:40:47;24.75;;;11.20;;
29730;SDS011;16639;51.488;0.152;2023-04-08T14:43:14;10.07;;;6.88;;
29730;SDS011;16639;51.488;0.152;2023-04-08T14:45:42;17.30;;;6.85;;
29730;SDS011;16639;51.488;0.152;2023-04-08T14:48:10;8.75;;;5.38;;
29730;SDS011;16639;51.488;0.152;2023-04-08T14:50:38;11.57;;;6.13;;
29730;SDS011;16639;51.488;0.152;2023-04-08T14:53:05;8.95;;;5.80;;
29730;SDS011;16639;51.488;0.152;2023-04-08T14:55:32;7.40;;;4.88;;
29730;SDS011;16639;51.488;0.152;2023-04-08T14:58:00;6.55;;;4.65;;
29730;SDS011;16639;51.488;0.152;2023-04-08T15:00:27;10.38;;;5.15;;
29730;SDS011;16639;51.488;0.152;2023-04-08T15:02:54;6.72;;;4.97;;